createdAt,value
2022-09-17T00:00:03.600Z,998.46
2022-09-17T00:01:03.677Z,998.47
2022-09-17T00:02:03.645Z,998.52
2022-09-17T00:03:03.710Z,998.47
2022-09-17T00:04:03.580Z,998.47
2022-09-17T00:05:03.571Z,998.49
2022-09-17T00:06:03.566Z,998.49
2022-09-17T00:07:03.550Z,998.51
2022-09-17T00:08:03.548Z,998.54
2022-09-17T00:09:03.538Z,998.58
2022-09-17T00:10:03.531Z,998.57
2022-09-17T00:11:03.522Z,998.62
2022-09-17T00:12:03.516Z,998.61
2022-09-17T00:13:03.508Z,998.63
2022-09-17T00:14:03.496Z,998.59
2022-09-17T00:15:03.492Z,998.62
2022-09-17T00:16:03.551Z,998.64
2022-09-17T00:17:03.565Z,998.65
2022-09-17T00:18:03.470Z,998.77
2022-09-17T00:19:03.466Z,998.73
2022-09-17T00:20:03.460Z,998.73
2022-09-17T00:21:03.450Z,998.72
2022-09-17T00:22:03.440Z,998.76
2022-09-17T00:23:03.436Z,998.75
2022-09-17T00:24:03.434Z,998.73
2022-09-17T00:25:03.418Z,998.75
2022-09-17T00:26:03.413Z,998.73
2022-09-17T00:27:03.405Z,998.73
2022-09-17T00:28:03.396Z,998.70
2022-09-17T00:29:03.390Z,998.77
2022-09-17T00:30:03.382Z,998.80
2022-09-17T00:31:03.405Z,998.75
2022-09-17T00:32:03.369Z,998.78
2022-09-17T00:33:03.449Z,998.85
2022-09-17T00:34:03.350Z,998.79
2022-09-17T00:35:03.345Z,998.84
2022-09-17T00:36:03.337Z,998.83
2022-09-17T00:37:03.332Z,998.84
2022-09-17T00:38:03.325Z,998.83
2022-09-17T00:39:03.315Z,998.84
2022-09-17T00:40:03.375Z,998.85
2022-09-17T00:41:03.304Z,998.86
2022-09-17T00:42:03.289Z,998.86
2022-09-17T00:43:03.286Z,998.89
2022-09-17T00:44:03.284Z,998.85
2022-09-17T00:45:03.300Z,998.90
2022-09-17T00:46:03.358Z,998.92
2022-09-17T00:47:03.266Z,998.87
2022-09-17T00:48:03.251Z,998.88
2022-09-17T00:49:03.342Z,998.94
2022-09-17T00:50:03.235Z,998.92
2022-09-17T00:51:03.229Z,998.98
2022-09-17T00:52:03.221Z,998.93
2022-09-17T00:53:03.216Z,999.01
2022-09-17T00:54:03.207Z,999.01
2022-09-17T00:55:03.204Z,998.99
2022-09-17T00:56:03.203Z,999.05
2022-09-17T00:57:03.187Z,999.03
2022-09-17T00:58:03.176Z,999.05
2022-09-17T00:59:03.172Z,999.07
2022-09-17T01:00:03.166Z,999.05
2022-09-17T01:01:03.232Z,999.09
2022-09-17T01:02:03.177Z,999.07
2022-09-17T01:03:03.145Z,999.08
2022-09-17T01:04:03.138Z,999.12
2022-09-17T01:05:03.216Z,999.10
2022-09-17T01:06:03.119Z,999.02
2022-09-17T01:07:03.112Z,999.03
2022-09-17T01:08:03.105Z,999.05
2022-09-17T01:09:03.100Z,999.04
2022-09-17T01:10:03.093Z,999.05
2022-09-17T01:11:03.085Z,999.08
2022-09-17T01:12:03.079Z,999.11
2022-09-17T01:13:03.068Z,999.08
2022-09-17T01:14:03.062Z,999.07
2022-09-17T01:15:03.055Z,999.09
2022-09-17T01:16:03.132Z,999.04
2022-09-17T01:17:03.043Z,999.05
2022-09-17T01:18:03.034Z,999.04
2022-09-17T01:19:03.030Z,999.11
2022-09-17T01:20:03.021Z,999.07
2022-09-17T01:21:03.099Z,999.15
2022-09-17T01:22:03.017Z,999.16
2022-09-17T01:23:02.997Z,999.11
2022-09-17T01:24:02.991Z,999.19
2022-09-17T01:25:10.141Z,999.21
2022-09-17T01:26:56.082Z,999.21
2022-09-17T01:27:56.065Z,999.27
2022-09-17T01:30:00.065Z,999.26
2022-09-17T01:31:00.115Z,999.28
2022-09-17T01:33:04.019Z,999.23
2022-09-17T01:34:04.011Z,999.21
2022-09-17T01:35:56.939Z,999.24
2022-09-17T01:36:57.001Z,999.22
2022-09-17T01:39:00.924Z,999.21
2022-09-17T01:40:00.970Z,999.24
2022-09-17T01:41:54.015Z,999.24
2022-09-17T01:42:53.991Z,999.23
2022-09-17T01:44:57.982Z,999.25
2022-09-17T01:45:57.964Z,999.25
2022-09-17T01:47:51.059Z,999.29
2022-09-17T01:48:51.047Z,999.32
2022-09-17T01:50:55.035Z,999.28
2022-09-17T01:51:55.019Z,999.33
2022-09-17T01:53:59.276Z,999.32
2022-09-17T01:54:58.986Z,999.33
2022-09-17T01:57:02.977Z,999.38
2022-09-17T01:58:02.959Z,999.35
2022-09-17T01:59:56.065Z,999.32
2022-09-17T02:00:56.103Z,999.37
2022-09-17T02:02:49.141Z,999.36
2022-09-17T02:03:49.133Z,999.38
2022-09-17T02:05:42.067Z,999.39
2022-09-17T02:06:42.047Z,999.41
2022-09-17T02:08:46.033Z,999.41
2022-09-17T02:09:46.105Z,999.44
2022-09-17T02:11:39.115Z,999.37
2022-09-17T02:12:39.105Z,999.43
2022-09-17T02:14:32.206Z,999.40
2022-09-17T02:15:32.192Z,999.39
2022-09-17T02:17:25.288Z,999.42
2022-09-17T02:18:25.273Z,999.43
2022-09-17T02:20:29.286Z,999.41
2022-09-17T02:21:29.269Z,999.39
2022-09-17T02:23:33.285Z,999.42
2022-09-17T02:24:33.267Z,999.40
2022-09-17T02:26:37.339Z,999.40
2022-09-17T02:27:37.243Z,999.40
2022-09-17T02:29:30.619Z,999.40
2022-09-17T02:30:30.605Z,999.39
2022-09-17T02:32:23.548Z,999.43
2022-09-17T02:33:23.534Z,999.41
2022-09-17T02:35:27.562Z,999.41
2022-09-17T02:36:27.543Z,999.43
2022-09-17T02:38:31.537Z,999.41
2022-09-17T02:39:31.519Z,999.43
2022-09-17T02:41:35.517Z,999.42
2022-09-17T02:42:35.589Z,999.41
2022-09-17T02:44:28.607Z,999.39
2022-09-17T02:45:28.591Z,999.38
2022-09-17T02:47:32.574Z,999.40
2022-09-17T02:48:32.563Z,999.44
2022-09-17T02:50:36.612Z,999.45
2022-09-17T02:51:36.546Z,999.44
2022-09-17T02:53:40.546Z,999.44
2022-09-17T02:54:40.532Z,999.40
2022-09-17T02:56:33.628Z,999.37
2022-09-17T02:57:33.617Z,999.37
2022-09-17T02:59:37.690Z,999.38
2022-09-17T03:00:37.624Z,999.38
2022-09-17T03:02:41.574Z,999.38
2022-09-17T03:03:41.561Z,999.38
2022-09-17T03:05:34.496Z,999.34
2022-09-17T03:06:34.478Z,999.36
2022-09-17T03:08:27.584Z,999.35
2022-09-17T03:09:27.576Z,999.38
2022-09-17T03:11:31.556Z,999.41
2022-09-17T03:12:31.547Z,999.39
2022-09-17T03:14:24.649Z,999.35
2022-09-17T03:15:24.721Z,999.35
2022-09-17T03:17:28.629Z,999.34
2022-09-17T03:18:28.618Z,999.36
2022-09-17T03:20:21.722Z,999.33
2022-09-17T03:21:21.704Z,999.36
2022-09-17T03:23:26.285Z,999.40
2022-09-17T03:24:25.878Z,999.39
2022-09-17T03:26:18.788Z,999.37
2022-09-17T03:27:18.787Z,999.41
2022-09-17T03:29:22.792Z,999.39
2022-09-17T03:30:22.777Z,999.40
2022-09-17T03:32:26.847Z,999.42
2022-09-17T03:33:26.749Z,999.43
2022-09-17T03:35:19.674Z,999.43
2022-09-17T03:36:19.654Z,999.44
2022-09-17T03:38:23.644Z,999.46
2022-09-17T03:39:23.622Z,999.48
2022-09-17T03:41:27.615Z,999.45
2022-09-17T03:42:27.608Z,999.46
2022-09-17T03:44:31.599Z,999.45
2022-09-17T03:45:31.582Z,999.45
2022-09-17T03:47:35.869Z,999.48
2022-09-17T03:48:35.773Z,999.45
2022-09-17T03:50:28.874Z,999.50
2022-09-17T03:51:28.859Z,999.46
2022-09-17T03:53:32.843Z,999.49
2022-09-17T03:54:32.827Z,999.48
2022-09-17T03:56:36.821Z,999.50
2022-09-17T03:57:36.814Z,999.51
2022-09-17T03:59:40.802Z,999.52
2022-09-17T04:00:40.783Z,999.48
2022-09-17T04:02:44.957Z,999.47
2022-09-17T04:03:44.751Z,999.49
2022-09-17T04:05:37.680Z,999.52
2022-09-17T04:06:37.668Z,999.51
2022-09-17T04:08:30.771Z,999.53
2022-09-17T04:09:30.755Z,999.56
2022-09-17T04:11:34.738Z,999.56
2022-09-17T04:12:34.729Z,999.59
2022-09-17T04:14:38.720Z,999.58
2022-09-17T04:15:38.726Z,999.57
2022-09-17T04:17:42.689Z,999.53
2022-09-17T04:18:42.758Z,999.52
2022-09-17T04:20:46.670Z,999.52
2022-09-17T04:21:46.658Z,999.59
2022-09-17T04:23:39.611Z,999.54
2022-09-17T04:24:39.588Z,999.56
2022-09-17T04:26:32.510Z,999.56
2022-09-17T04:27:32.498Z,999.55
2022-09-17T04:29:36.504Z,999.56
2022-09-17T04:30:36.490Z,999.59
2022-09-17T04:32:40.489Z,999.62
2022-09-17T04:33:40.469Z,999.65
2022-09-17T04:35:33.465Z,999.67
2022-09-17T04:36:33.375Z,999.66
2022-09-17T04:38:26.492Z,999.64
2022-09-17T04:39:26.471Z,999.65
2022-09-17T04:41:30.459Z,999.65
2022-09-17T04:42:30.445Z,999.64
2022-09-17T04:44:34.435Z,999.62
2022-09-17T04:45:34.414Z,999.64
2022-09-17T04:47:38.415Z,999.70
2022-09-17T04:48:38.400Z,999.68
2022-09-17T04:50:31.620Z,999.65
2022-09-17T04:51:31.694Z,999.65
2022-09-17T04:53:24.782Z,999.64
2022-09-17T04:54:24.694Z,999.67
2022-09-17T04:56:17.614Z,999.69
2022-09-17T04:57:17.604Z,999.67
2022-09-17T04:59:10.710Z,999.66
2022-09-17T05:00:10.690Z,999.68
2022-09-17T05:02:14.809Z,999.69
2022-09-17T05:03:14.675Z,999.70
2022-09-17T05:05:18.676Z,999.73
2022-09-17T05:06:18.661Z,999.69
2022-09-17T05:08:22.755Z,999.71
2022-09-17T05:09:22.659Z,999.73
2022-09-17T05:11:26.646Z,999.73
2022-09-17T05:12:28.481Z,999.75
2022-09-17T05:14:30.610Z,999.77
2022-09-17T05:15:30.595Z,999.76
2022-09-17T05:17:34.584Z,999.76
2022-09-17T05:18:34.567Z,999.78
2022-09-17T05:20:27.661Z,999.80
2022-09-17T05:21:27.653Z,999.79
2022-09-17T05:23:31.733Z,999.80
2022-09-17T05:24:31.628Z,999.79
2022-09-17T05:26:24.731Z,999.82
2022-09-17T05:27:24.714Z,999.83
2022-09-17T05:29:28.720Z,999.85
2022-09-17T05:30:28.707Z,999.85
2022-09-17T05:32:32.721Z,999.84
2022-09-17T05:33:32.698Z,999.89
2022-09-17T05:35:25.600Z,999.88
2022-09-17T05:36:25.593Z,999.92
2022-09-17T05:38:29.575Z,999.93
2022-09-17T05:39:29.641Z,999.95
2022-09-17T05:41:22.676Z,999.93
2022-09-17T05:42:22.661Z,999.93
2022-09-17T05:44:26.662Z,999.93
2022-09-17T05:45:26.659Z,999.93
2022-09-17T05:47:19.758Z,999.92
2022-09-17T05:48:19.737Z,999.95
2022-09-17T05:50:12.834Z,999.95
2022-09-17T05:51:12.821Z,999.99
2022-09-17T05:53:16.805Z,999.99
2022-09-17T05:54:16.783Z,1000.00
2022-09-17T05:56:09.768Z,1000.02
2022-09-17T05:57:09.675Z,1000.06
2022-09-17T05:59:13.670Z,1000.08
2022-09-17T06:00:13.650Z,1000.09
2022-09-17T06:02:17.698Z,1000.10
2022-09-17T06:03:17.669Z,1000.09
2022-09-17T06:05:21.621Z,1000.07
2022-09-17T06:06:21.609Z,1000.10
2022-09-17T06:08:25.595Z,1000.12
2022-09-17T06:09:25.581Z,1000.13
2022-09-17T06:11:29.664Z,1000.11
2022-09-17T06:12:29.567Z,1000.13
2022-09-17T06:14:33.563Z,1000.17
2022-09-17T06:15:33.553Z,1000.20
2022-09-17T06:17:37.546Z,1000.17
2022-09-17T06:18:37.527Z,1000.21
2022-09-17T06:20:30.626Z,1000.21
2022-09-17T06:21:30.615Z,1000.15
2022-09-17T06:23:23.720Z,1000.20
2022-09-17T06:24:23.700Z,1000.22
2022-09-17T06:26:16.609Z,1000.25
2022-09-17T06:27:16.677Z,1000.24
2022-09-17T06:29:20.580Z,1000.26
2022-09-17T06:30:20.571Z,1000.29
2022-09-17T06:32:24.568Z,1000.27
2022-09-17T06:33:24.549Z,1000.27
2022-09-17T06:35:20.493Z,1000.24
2022-09-17T06:36:17.660Z,1000.27
2022-09-17T06:38:10.776Z,1000.28
2022-09-17T06:39:10.756Z,1000.27
2022-09-17T06:41:03.855Z,1000.29
2022-09-17T06:42:03.843Z,1000.34
2022-09-17T06:43:57.071Z,1000.32
2022-09-17T06:44:58.892Z,1000.29
2022-09-17T06:47:00.970Z,1000.32
2022-09-17T06:48:00.897Z,1000.30
2022-09-17T06:49:53.997Z,1000.32
2022-09-17T06:50:53.984Z,1000.35
2022-09-17T06:52:47.085Z,1000.36
2022-09-17T06:53:47.070Z,1000.40
2022-09-17T06:55:40.000Z,1000.38
2022-09-17T06:56:39.988Z,1000.37
2022-09-17T06:58:43.989Z,1000.37
2022-09-17T06:59:44.051Z,1000.42
2022-09-17T07:01:48.005Z,1000.41
2022-09-17T07:02:47.931Z,1000.40
2022-09-17T07:04:51.902Z,1000.45
2022-09-17T07:05:51.891Z,1000.45
2022-09-17T07:07:55.883Z,1000.44
2022-09-17T07:08:55.869Z,1000.41
2022-09-17T07:10:48.963Z,1000.44
2022-09-17T07:11:48.956Z,1000.47
2022-09-17T07:13:52.951Z,1000.48
2022-09-17T07:14:53.017Z,1000.48
2022-09-17T07:16:56.931Z,1000.45
2022-09-17T07:17:56.916Z,1000.45
2022-09-17T07:20:00.896Z,1000.52
2022-09-17T07:21:00.887Z,1000.54
2022-09-17T07:23:04.864Z,1000.53
2022-09-17T07:24:04.848Z,1000.53
2022-09-17T07:25:57.766Z,1000.52
2022-09-17T07:26:57.752Z,1000.53
2022-09-17T07:29:01.740Z,1000.49
2022-09-17T07:30:01.810Z,1000.51
2022-09-17T07:32:05.739Z,1000.50
2022-09-17T07:33:05.719Z,1000.49
2022-09-17T07:35:09.709Z,1000.52
2022-09-17T07:36:09.702Z,1000.51
2022-09-17T07:38:13.691Z,1000.50
2022-09-17T07:39:13.675Z,1000.50
2022-09-17T07:41:06.779Z,1000.59
2022-09-17T07:42:06.762Z,1000.50
2022-09-17T07:44:10.745Z,1000.57
2022-09-17T07:45:10.823Z,1000.58
2022-09-17T07:47:14.728Z,1000.56
2022-09-17T07:48:14.713Z,1000.58
2022-09-17T07:50:07.652Z,1000.59
2022-09-17T07:51:07.638Z,1000.58
2022-09-17T07:53:11.833Z,1000.58
2022-09-17T07:54:11.816Z,1000.57
2022-09-17T07:56:08.547Z,1000.57
2022-09-17T07:57:04.718Z,1000.62
2022-09-17T07:59:08.716Z,1000.61
2022-09-17T08:00:08.708Z,1000.58
2022-09-17T08:02:12.969Z,1000.54
2022-09-17T08:03:12.724Z,1000.58
2022-09-17T08:05:16.673Z,1000.60
2022-09-17T08:06:16.665Z,1000.61
2022-09-17T08:08:21.483Z,1000.66
2022-09-17T08:09:20.646Z,1000.69
2022-09-17T08:11:51.756Z,1000.68
2022-09-17T08:12:24.611Z,1000.66
2022-09-17T08:14:29.972Z,1000.65
2022-09-17T08:15:28.603Z,1000.65
2022-09-17T08:17:32.706Z,1000.65
2022-09-17T08:18:32.591Z,1000.62
2022-09-17T08:19:32.578Z,1000.66
2022-09-17T08:20:32.577Z,1000.63
2022-09-17T08:21:32.569Z,1000.61
2022-09-17T08:22:32.573Z,1000.61
2022-09-17T08:23:32.556Z,1000.54
2022-09-17T08:24:32.549Z,1000.59
2022-09-17T08:25:32.543Z,1000.51
2022-09-17T08:26:32.541Z,1000.66
2022-09-17T08:27:32.536Z,1000.58
2022-09-17T08:28:32.529Z,1000.55
2022-09-17T08:29:35.208Z,1000.52
2022-09-17T08:30:32.517Z,1000.52
2022-09-17T08:31:32.592Z,1000.51
2022-09-17T08:32:32.503Z,1000.51
2022-09-17T08:33:32.579Z,1000.56
2022-09-17T08:34:32.491Z,1000.53
2022-09-17T08:35:32.485Z,1000.50
2022-09-17T08:36:32.480Z,1000.54
2022-09-17T08:37:32.474Z,1000.51
2022-09-17T08:38:37.087Z,1000.47
2022-09-17T08:39:32.462Z,1000.46
2022-09-17T08:40:32.532Z,1000.47
2022-09-17T08:41:32.449Z,1000.54
2022-09-17T08:42:32.443Z,1000.56
2022-09-17T08:43:32.442Z,1000.51
2022-09-17T08:44:32.432Z,1000.52
2022-09-17T08:45:32.426Z,1000.51
2022-09-17T08:46:32.535Z,1000.52
2022-09-17T08:47:32.413Z,1000.40
2022-09-17T08:48:32.409Z,1000.49
2022-09-17T08:49:32.488Z,1000.48
2022-09-17T08:50:32.395Z,1000.49
2022-09-17T08:51:32.388Z,1000.47
2022-09-17T08:52:32.395Z,1000.50
2022-09-17T08:53:32.376Z,1000.47
2022-09-17T08:54:32.371Z,1000.43
2022-09-17T08:55:32.365Z,1000.49
2022-09-17T08:56:32.361Z,1000.50
2022-09-17T08:57:32.357Z,1000.51
2022-09-17T08:58:32.385Z,1000.43
2022-09-17T08:59:32.340Z,1000.53
2022-09-17T09:00:32.336Z,1000.53
2022-09-17T09:01:32.396Z,1000.47
2022-09-17T09:02:32.432Z,1000.51
2022-09-17T09:03:32.317Z,1000.53
2022-09-17T09:04:32.313Z,1000.57
2022-09-17T09:05:32.413Z,1000.56
2022-09-17T09:06:32.301Z,1000.54
2022-09-17T09:07:32.297Z,1000.52
2022-09-17T09:08:32.288Z,1000.51
2022-09-17T09:09:32.282Z,1000.52
2022-09-17T09:10:32.276Z,1000.52
2022-09-17T09:11:32.268Z,1000.55
2022-09-17T09:12:32.266Z,1000.55
2022-09-17T09:13:32.261Z,1000.66
2022-09-17T09:14:32.253Z,1000.57
2022-09-17T09:15:32.247Z,1000.58
2022-09-17T09:16:32.266Z,1000.54
2022-09-17T09:17:32.235Z,1000.58
2022-09-17T09:18:32.236Z,1000.56
2022-09-17T09:19:32.223Z,1000.59
2022-09-17T09:20:32.227Z,1000.47
2022-09-17T09:21:32.295Z,1000.68
2022-09-17T09:22:32.218Z,1000.63
2022-09-17T09:23:32.204Z,1000.66
2022-09-17T09:24:32.196Z,1000.66
2022-09-17T09:25:32.197Z,1000.74
2022-09-17T09:26:32.188Z,1000.69
2022-09-17T09:27:32.184Z,1000.71
2022-09-17T09:28:32.177Z,1000.72
2022-09-17T09:29:32.171Z,1000.73
2022-09-17T09:30:32.166Z,1000.70
2022-09-17T09:31:32.217Z,1000.73
2022-09-17T09:32:32.155Z,1000.72
2022-09-17T09:33:32.150Z,1000.74
2022-09-17T09:34:32.143Z,1000.81
2022-09-17T09:35:32.136Z,1000.86
2022-09-17T09:36:32.136Z,1000.93
2022-09-17T09:37:32.214Z,1000.87
2022-09-17T09:38:32.124Z,1000.91
2022-09-17T09:39:38.128Z,1000.94
2022-09-17T09:40:32.173Z,1000.96
2022-09-17T09:41:32.108Z,1000.96
2022-09-17T09:42:32.103Z,1000.93
2022-09-17T09:43:46.562Z,1000.92
2022-09-17T09:44:32.090Z,1000.97
2022-09-17T09:45:32.201Z,1000.99
2022-09-17T09:46:32.163Z,1000.96
2022-09-17T09:47:32.074Z,1000.94
2022-09-17T09:48:32.068Z,1000.95
2022-09-17T09:49:32.059Z,1001.00
2022-09-17T09:50:48.721Z,1000.97
2022-09-17T09:51:32.050Z,1000.97
2022-09-17T09:52:32.045Z,1001.03
2022-09-17T09:53:32.124Z,1001.05
2022-09-17T09:54:32.032Z,1001.03
2022-09-17T09:55:32.027Z,1001.08
2022-09-17T09:56:32.025Z,1001.08
2022-09-17T09:57:32.017Z,1001.09
2022-09-17T09:58:32.011Z,1001.09
2022-09-17T09:59:32.003Z,1001.09
2022-09-17T10:00:32.000Z,1001.06
2022-09-17T10:01:32.047Z,1001.03
2022-09-17T10:02:32.030Z,1000.98
2022-09-17T10:03:31.985Z,1000.99
2022-09-17T10:04:31.979Z,1000.98
2022-09-17T10:05:31.976Z,1000.96
2022-09-17T10:06:31.966Z,1000.96
2022-09-17T10:07:31.962Z,1000.95
2022-09-17T10:08:31.955Z,1000.94
2022-09-17T10:09:32.042Z,1000.97
2022-09-17T10:10:31.946Z,1000.90
2022-09-17T10:11:31.942Z,1000.93
2022-09-17T10:12:31.935Z,1000.84
2022-09-17T10:13:31.932Z,1000.90
2022-09-17T10:14:31.920Z,1000.88
2022-09-17T10:15:31.941Z,1000.93
2022-09-17T10:16:31.958Z,1000.76
2022-09-17T10:17:31.904Z,1000.88
2022-09-17T10:18:31.901Z,1000.89
2022-09-17T10:19:31.896Z,1000.84
2022-09-17T10:20:31.893Z,1000.90
2022-09-17T10:21:31.888Z,1000.94
2022-09-17T10:22:31.890Z,1000.99
2022-09-17T10:23:31.877Z,1001.01
2022-09-17T10:24:31.879Z,1001.12
2022-09-17T10:25:31.949Z,1001.17
2022-09-17T10:26:31.860Z,1001.17
2022-09-17T10:27:31.856Z,1001.31
2022-09-17T10:28:31.855Z,1001.35
2022-09-17T10:29:31.845Z,1001.34
2022-09-17T10:30:31.840Z,1001.30
2022-09-17T10:31:31.868Z,1001.32
2022-09-17T10:32:31.830Z,1001.36
2022-09-17T10:33:31.826Z,1001.34
2022-09-17T10:34:31.819Z,1001.37
2022-09-17T10:35:31.815Z,1001.32
2022-09-17T10:36:35.958Z,1001.29
2022-09-17T10:37:31.804Z,1001.28
2022-09-17T10:38:31.795Z,1001.23
2022-09-17T10:39:31.790Z,1001.25
2022-09-17T10:40:31.842Z,1001.25
2022-09-17T10:41:31.866Z,1001.25
2022-09-17T10:42:31.778Z,1001.21
2022-09-17T10:43:31.773Z,1001.20
2022-09-17T10:44:31.767Z,1001.20
2022-09-17T10:45:31.761Z,1001.20
2022-09-17T10:46:31.825Z,1001.23
2022-09-17T10:47:31.751Z,1001.20
2022-09-17T10:48:31.750Z,1001.22
2022-09-17T10:49:31.741Z,1001.22
2022-09-17T10:50:31.734Z,1001.15
2022-09-17T10:51:31.732Z,1001.17
2022-09-17T10:52:31.724Z,1001.23
2022-09-17T10:53:31.720Z,1001.20
2022-09-17T10:54:31.720Z,1001.21
2022-09-17T10:55:31.712Z,1001.20
2022-09-17T10:56:31.706Z,1001.15
2022-09-17T10:57:31.787Z,1001.18
2022-09-17T10:58:31.692Z,1001.13
2022-09-17T10:59:31.687Z,1001.17
2022-09-17T11:00:31.686Z,1001.14
2022-09-17T11:01:31.719Z,1001.15
2022-09-17T11:02:31.826Z,1001.19
2022-09-17T11:03:31.673Z,1001.13
2022-09-17T11:04:31.668Z,1001.10
2022-09-17T11:05:31.667Z,1001.16
2022-09-17T11:06:31.658Z,1001.13
2022-09-17T11:07:31.655Z,1001.21
2022-09-17T11:08:31.648Z,1001.19
2022-09-17T11:09:31.646Z,1001.20
2022-09-17T11:10:31.638Z,1001.24
2022-09-17T11:11:31.635Z,1001.23
2022-09-17T11:12:31.632Z,1001.24
2022-09-17T11:13:31.710Z,1001.20
2022-09-17T11:14:31.619Z,1001.23
2022-09-17T11:15:31.614Z,1001.21
2022-09-17T11:16:31.669Z,1001.24
2022-09-17T11:17:31.606Z,1001.25
2022-09-17T11:18:31.602Z,1001.25
2022-09-17T11:19:31.593Z,1001.20
2022-09-17T11:20:31.593Z,1001.20
2022-09-17T11:21:31.587Z,1001.19
2022-09-17T11:22:31.580Z,1001.15
2022-09-17T11:23:31.574Z,1001.12
2022-09-17T11:24:31.573Z,1001.14
2022-09-17T11:25:31.565Z,1001.14
2022-09-17T11:26:31.559Z,1001.14
2022-09-17T11:27:31.557Z,1001.19
2022-09-17T11:28:31.550Z,1001.24
2022-09-17T11:29:31.629Z,1001.34
2022-09-17T11:30:31.542Z,1001.37
2022-09-17T11:31:31.604Z,1001.38
2022-09-17T11:32:31.534Z,1001.38
2022-09-17T11:33:31.526Z,1001.40
2022-09-17T11:34:31.524Z,1001.42
2022-09-17T11:35:31.516Z,1001.43
2022-09-17T11:36:31.512Z,1001.38
2022-09-17T11:37:31.506Z,1001.41
2022-09-17T11:38:31.500Z,1001.40
2022-09-17T11:39:31.518Z,1001.41
2022-09-17T11:40:31.563Z,1001.40
2022-09-17T11:41:31.479Z,1001.39
2022-09-17T11:42:31.479Z,1001.37
2022-09-17T11:43:31.475Z,1001.34
2022-09-17T11:44:31.467Z,1001.32
2022-09-17T11:45:31.549Z,1001.24
2022-09-17T11:46:31.489Z,1001.25
2022-09-17T11:47:31.455Z,1001.16
2022-09-17T11:48:31.449Z,1001.19
2022-09-17T11:49:31.444Z,1001.20
2022-09-17T11:50:31.436Z,1001.17
2022-09-17T11:51:31.450Z,1001.20
2022-09-17T11:52:31.425Z,1001.18
2022-09-17T11:53:31.418Z,1001.17
2022-09-17T11:54:31.416Z,1001.15
2022-09-17T11:55:31.409Z,1001.17
2022-09-17T11:56:31.405Z,1001.08
2022-09-17T11:57:31.400Z,1001.13
2022-09-17T11:58:31.401Z,1001.09
2022-09-17T11:59:31.390Z,1001.12
2022-09-17T12:00:31.387Z,1001.08
2022-09-17T12:01:31.528Z,1001.05
2022-09-17T12:02:31.434Z,1001.04
2022-09-17T12:03:31.370Z,1001.01
2022-09-17T12:04:31.366Z,1001.01
2022-09-17T12:05:31.366Z,1001.01
2022-09-17T12:06:31.356Z,1000.93
2022-09-17T12:07:31.352Z,1000.98
2022-09-17T12:08:31.344Z,1001.03
2022-09-17T12:09:31.340Z,1000.93
2022-09-17T12:10:31.335Z,1001.01
2022-09-17T12:11:31.335Z,1001.01
2022-09-17T12:12:48.924Z,1000.97
2022-09-17T12:13:31.322Z,1001.00
2022-09-17T12:14:31.316Z,1001.02
2022-09-17T12:15:31.309Z,1001.08
2022-09-17T12:16:31.390Z,1001.04
2022-09-17T12:17:31.408Z,1000.96
2022-09-17T12:18:33.073Z,1000.98
2022-09-17T12:19:31.290Z,1001.08
2022-09-17T12:20:31.285Z,1001.05
2022-09-17T12:21:31.284Z,1001.04
2022-09-17T12:22:31.275Z,1001.04
2022-09-17T12:23:31.270Z,1001.03
2022-09-17T12:24:31.264Z,1001.02
2022-09-17T12:25:31.264Z,1001.00
2022-09-17T12:26:31.259Z,1001.00
2022-09-17T12:27:31.246Z,1000.93
2022-09-17T12:28:31.246Z,1000.98
2022-09-17T12:29:31.240Z,1000.97
2022-09-17T12:30:31.236Z,1000.96
2022-09-17T12:31:31.360Z,1000.91
2022-09-17T12:32:31.228Z,1000.86
2022-09-17T12:33:31.313Z,1000.93
2022-09-17T12:34:31.216Z,1000.91
2022-09-17T12:35:53.002Z,1000.92
2022-09-17T12:36:31.209Z,1000.89
2022-09-17T12:37:31.202Z,1000.85
2022-09-17T12:38:31.195Z,1000.88
2022-09-17T12:39:31.193Z,1000.90
2022-09-17T12:40:31.285Z,1000.92
2022-09-17T12:41:31.183Z,1000.92
2022-09-17T12:42:31.179Z,1000.92
2022-09-17T12:43:31.172Z,1000.83
2022-09-17T12:44:31.169Z,1000.78
2022-09-17T12:45:31.159Z,1000.76
2022-09-17T12:46:31.205Z,1000.73
2022-09-17T12:47:31.150Z,1000.72
2022-09-17T12:48:31.147Z,1000.70
2022-09-17T12:49:31.227Z,1000.68
2022-09-17T12:50:31.145Z,1000.67
2022-09-17T12:51:31.137Z,1000.67
2022-09-17T12:52:31.128Z,1000.64
2022-09-17T12:53:31.121Z,1000.75
2022-09-17T12:54:31.116Z,1000.69
2022-09-17T12:55:31.113Z,1000.74
2022-09-17T12:56:31.107Z,1000.74
2022-09-17T12:57:31.108Z,1000.74
2022-09-17T12:58:31.096Z,1000.69
2022-09-17T12:59:31.092Z,1000.71
2022-09-17T13:00:31.133Z,1000.72
2022-09-17T13:01:31.081Z,1000.76
2022-09-17T13:02:31.087Z,1000.73
2022-09-17T13:03:31.073Z,1000.71
2022-09-17T13:04:50.175Z,1000.57
2022-09-17T13:05:35.742Z,1000.65
2022-09-17T13:06:31.055Z,1000.64
2022-09-17T13:07:31.052Z,1000.58
2022-09-17T13:08:31.046Z,1000.66
2022-09-17T13:09:31.042Z,1000.63
2022-09-17T13:10:31.055Z,1000.70
2022-09-17T13:11:31.033Z,1000.70
2022-09-17T13:12:31.027Z,1000.66
2022-09-17T13:13:31.020Z,1000.64
2022-09-17T13:14:31.018Z,1000.54
2022-09-17T13:15:31.013Z,1000.61
2022-09-17T13:16:31.035Z,1000.70
2022-09-17T13:17:31.004Z,1000.66
2022-09-17T13:18:30.998Z,1000.72
2022-09-17T13:19:30.989Z,1000.73
2022-09-17T13:20:31.021Z,1000.80
2022-09-17T13:21:31.064Z,1000.73
2022-09-17T13:22:30.977Z,1000.72
2022-09-17T13:23:30.972Z,1000.72
2022-09-17T13:24:30.968Z,1000.73
2022-09-17T13:25:30.961Z,1000.72
2022-09-17T13:26:30.955Z,1000.65
2022-09-17T13:27:38.174Z,1000.67
2022-09-17T13:29:34.930Z,1000.68
2022-09-17T13:30:34.919Z,1000.58
2022-09-17T13:32:27.850Z,1000.62
2022-09-17T13:33:27.836Z,1000.57
2022-09-17T13:34:27.832Z,1000.57
2022-09-17T13:35:27.827Z,1000.59
2022-09-17T13:36:27.818Z,1000.60
2022-09-17T13:37:27.907Z,1000.58
2022-09-17T13:38:27.811Z,1000.64
2022-09-17T13:39:27.807Z,1000.59
2022-09-17T13:40:27.887Z,1000.61
2022-09-17T13:41:27.799Z,1000.54
2022-09-17T13:42:27.791Z,1000.61
2022-09-17T13:43:27.827Z,1000.67
2022-09-17T13:44:27.782Z,1000.66
2022-09-17T13:45:27.797Z,1000.68
2022-09-17T13:46:27.856Z,1000.67
2022-09-17T13:47:27.768Z,1000.64
2022-09-17T13:48:27.761Z,1000.65
2022-09-17T13:49:27.754Z,1000.64
2022-09-17T13:50:27.748Z,1000.60
2022-09-17T13:51:27.743Z,1000.69
2022-09-17T13:52:27.738Z,1000.65
2022-09-17T13:53:27.822Z,1000.66
2022-09-17T13:54:27.728Z,1000.67
2022-09-17T13:55:27.722Z,1000.58
2022-09-17T13:56:27.718Z,1000.60
2022-09-17T13:57:27.712Z,1000.60
2022-09-17T13:58:27.706Z,1000.59
2022-09-17T13:59:27.703Z,1000.67
2022-09-17T14:00:27.717Z,1000.60
2022-09-17T14:01:27.692Z,1000.60
2022-09-17T14:02:30.858Z,1000.58
2022-09-17T14:03:27.680Z,1000.61
2022-09-17T14:04:27.676Z,1000.61
2022-09-17T14:05:27.673Z,1000.58
2022-09-17T14:06:27.667Z,1000.56
2022-09-17T14:07:27.660Z,1000.53
2022-09-17T14:08:27.655Z,1000.55
2022-09-17T14:09:27.733Z,1000.53
2022-09-17T14:10:27.649Z,1000.55
2022-09-17T14:11:27.639Z,1000.54
2022-09-17T14:12:27.633Z,1000.54
2022-09-17T14:13:27.629Z,1000.54
2022-09-17T14:14:27.622Z,1000.57
2022-09-17T14:15:27.618Z,1000.60
2022-09-17T14:16:27.701Z,1000.57
2022-09-17T14:17:27.611Z,1000.62
2022-09-17T14:18:27.630Z,1000.59
2022-09-17T14:19:27.598Z,1000.70
2022-09-17T14:20:27.595Z,1000.69
2022-09-17T14:21:27.588Z,1000.61
2022-09-17T14:22:27.579Z,1000.75
2022-09-17T14:23:27.579Z,1000.76
2022-09-17T14:24:27.571Z,1000.85
2022-09-17T14:25:27.659Z,1000.77
2022-09-17T14:26:27.560Z,1000.93
2022-09-17T14:27:27.553Z,1000.91
2022-09-17T14:28:27.550Z,1000.80
2022-09-17T14:29:27.545Z,1001.03
2022-09-17T14:30:27.541Z,1000.96
2022-09-17T14:31:27.610Z,1000.84
2022-09-17T14:32:27.528Z,1000.95